»·PEaware :: SWA98 KPHX-KSAN

SWA98 :: KPHX-KSAN

FLIGHT INFORMATION

Flight Status: Arrived
Operator:
Southwest Airlines
More flights by this operator :: More flights under this callsign
Pilot: Steve F. (26981)
Aircraft: BOEING 737-800
(B738)
More flights by this aircraft type
Origin: KPHX Phoenix Sky Harbor Intl
United States
Destination: KSAN San Diego Intl-Lindbergh
United States
More flights between these airports :: More routes between these airports
Route: FYBRD1 MOHAK J2 HOGGZ LUCKI1
File this flight plan on PilotEdge
Remarks:
Altitude:
(Current/Filed)
32,000ft
Speed:
(Current/Filed)
430kts
Departed: 25-Jan-20 02:02 PM
Arrived: 25-Jan-20 02:54 PM
Distance/Time
Traveled:
264nm/0:52
Distance/Time
To Go:
Arrived

Flight Plot

Page will automatically refresh every two minutes.

Flight plan parsing failed; only flown route is shown


Map Options




Map Legend


Flown Route
Filed Route
Departure Airport
Arrival Airport
Navaid (VOR, NDB)
Fix

Horizontal Profiles

Position Reports

Time Latitude Longitude Heading Altitude Ground
Speed
25-Jan-20 13:36 33.433753 -111.999822 88 1143ft 0kts
25-Jan-20 13:38 33.433753 -111.999822 88 1143ft 0kts
25-Jan-20 13:39 33.433753 -111.999822 88 1143ft 0kts
25-Jan-20 13:40 33.433753 -111.999822 88 1143ft 0kts
25-Jan-20 13:41 33.433753 -111.999822 88 1143ft 0kts
25-Jan-20 13:42 33.433753 -111.999822 88 1143ft 0kts
25-Jan-20 13:43 33.433753 -111.999822 88 1143ft 0kts
25-Jan-20 13:44 33.433753 -111.999822 88 1143ft 0kts
25-Jan-20 13:45 33.433753 -111.999822 88 1143ft 0kts
25-Jan-20 13:46 33.433753 -111.999822 88 1143ft 0kts
25-Jan-20 13:47 33.433753 -111.999822 88 1143ft 0kts
25-Jan-20 13:48 33.433753 -111.999822 88 1143ft 0kts
25-Jan-20 13:49 33.433753 -111.999822 88 1143ft 0kts
25-Jan-20 13:50 33.433753 -111.999822 88 1143ft 0kts
25-Jan-20 13:51 33.433752 -111.999856 88 1143ft 1kts
25-Jan-20 13:52 33.433963 -112.000484 137 1143ft 0kts
25-Jan-20 13:53 33.433962 -112.000483 137 1143ft 0kts
25-Jan-20 13:54 33.433961 -112.000481 137 1143ft 0kts
25-Jan-20 13:55 33.433960 -112.000480 137 1143ft 0kts
25-Jan-20 13:56 33.433941 -112.000460 137 1143ft 2kts
25-Jan-20 13:57 33.432877 -112.004347 274 1143ft 23kts
25-Jan-20 13:57 33.432884 -112.010934 271 1143ft 26kts
25-Jan-20 13:59 33.432863 -112.019032 270 1143ft 20kts
25-Jan-20 14:00 33.432903 -112.025937 270 1143ft 18kts
25-Jan-20 14:00 33.431253 -112.026896 169 1143ft 8kts
25-Jan-20 14:01 33.431015 -112.002463 90 1176ft 176kts
25-Jan-20 14:03 33.433361 -111.919354 87 3939ft 251kts
25-Jan-20 14:03 33.415335 -111.859493 135 6732ft 242kts
25-Jan-20 14:04 33.356026 -111.869935 240 9517ft 258kts
25-Jan-20 14:05 33.357997 -111.954170 279 12583ft 264kts
25-Jan-20 14:06 33.342228 -112.049691 238 13922ft 348kts
25-Jan-20 14:07 33.281802 -112.148593 235 16401ft 378kts
25-Jan-20 14:08 33.217970 -112.251670 235 19059ft 393kts
25-Jan-20 14:09 33.152010 -112.358351 236 21482ft 406kts
25-Jan-20 14:10 33.084128 -112.468778 236 23588ft 419kts
25-Jan-20 14:11 33.013422 -112.582545 236 25442ft 432kts
25-Jan-20 14:12 32.954646 -112.707059 258 27080ft 436kts
25-Jan-20 14:13 32.932683 -112.850129 263 28582ft 444kts
25-Jan-20 14:14 32.912537 -112.996648 263 29929ft 453kts
25-Jan-20 14:15 32.892187 -113.145933 263 31051ft 461kts
25-Jan-20 14:16 32.871336 -113.297783 263 31858ft 468kts
25-Jan-20 14:17 32.850171 -113.451234 263 32094ft 469kts
25-Jan-20 14:18 32.828473 -113.604318 263 32093ft 469kts
25-Jan-20 14:19 32.806877 -113.756749 263 32091ft 470kts
25-Jan-20 14:20 32.784762 -113.910424 263 32089ft 470kts
25-Jan-20 14:21 32.774858 -114.064300 272 32088ft 467kts
25-Jan-20 14:22 32.780857 -114.218474 275 32088ft 466kts
25-Jan-20 14:23 32.788775 -114.371761 280 32088ft 464kts
25-Jan-20 14:24 32.823888 -114.518401 290 32088ft 461kts
25-Jan-20 14:25 32.863739 -114.663749 289 32086ft 462kts
25-Jan-20 14:26 32.877638 -114.812330 271 32085ft 442kts
25-Jan-20 14:27 32.874085 -114.957197 271 32090ft 438kts
25-Jan-20 14:28 32.871598 -115.077028 270 32093ft 438kts
25-Jan-20 14:29 32.870081 -115.139071 271 32094ft 437kts
25-Jan-20 14:30 32.865699 -115.308810 271 32086ft 390kts
25-Jan-20 14:31 32.851824 -115.435163 263 32084ft 394kts
25-Jan-20 14:32 32.832238 -115.563280 262 32080ft 395kts
25-Jan-20 14:33 32.811205 -115.691058 261 30569ft 396kts
25-Jan-20 14:34 32.789679 -115.820893 261 27111ft 403kts
25-Jan-20 14:35 32.776898 -115.951817 268 23906ft 395kts
25-Jan-20 14:36 32.768122 -116.076905 267 21964ft 363kts
25-Jan-20 14:37 32.759168 -116.194128 267 19460ft 351kts
25-Jan-20 14:38 32.750449 -116.307112 267 17495ft 327kts
25-Jan-20 14:39 32.742500 -116.409311 267 16038ft 303kts
25-Jan-20 14:40 32.735046 -116.503147 266 14128ft 276kts
25-Jan-20 14:41 32.752898 -116.586542 311 12197ft 266kts
25-Jan-20 14:42 32.801881 -116.651895 312 11062ft 264kts
25-Jan-20 14:43 32.850831 -116.716731 312 9882ft 263kts
25-Jan-20 14:44 32.863392 -116.792906 228 8620ft 267kts
25-Jan-20 14:45 32.798471 -116.830392 201 7277ft 253kts
25-Jan-20 14:46 32.734642 -116.859072 201 6072ft 237kts
25-Jan-20 14:47 32.681201 -116.897422 243 4723ft 226kts
25-Jan-20 14:48 32.677425 -116.964580 288 3716ft 193kts
25-Jan-20 14:49 32.688243 -117.004633 286 3187ft 179kts
25-Jan-20 14:50 32.705704 -117.074959 286 2142ft 155kts
25-Jan-20 14:51 32.717478 -117.123216 286 1271ft 151kts
25-Jan-20 14:52 32.728914 -117.170702 286 262ft 148kts
25-Jan-20 14:53 32.736235 -117.200675 286 23ft 24kts
25-Jan-20 14:54 32.735693 -117.202240 151 23ft 3kts
25-Jan-20 14:55 32.734613 -117.198078 105 23ft 18kts
25-Jan-20 14:56 32.733350 -117.196435 177 23ft 0kts

Navigation Log

Ident Type
Flight plan parsing failed, navigation log unavailable